Aosta, Aosta Valley Airport (LIMW)

NameAosta Valley Airport
CityAosta
CountryItaly
ICAOLIMW
IATAAOT
Altitude546 m
CoordinatesGoogle Map
Live Air TrafficLiveATC.net
METARLIMW 121450Z AUTO 00000KT 9999 NCD M02/M07 Q1017
2018-12-12 14:50:00 Wind: North (0°) 0 m/s - Visibility: > 10000 m - Temperature: -2 °C - Dew point: -7 °C - Humidity: 69% - Pressure: 1017 hPa

Sorry, no flights used the airport in this database.